createdAt,value
2023-03-06T00:02:13.661Z,97470.84
2023-03-06T00:07:15.526Z,97463.88
2023-03-06T00:12:17.463Z,97475.16
2023-03-06T00:17:19.287Z,97463.09
2023-03-06T00:22:21.188Z,97466.59
2023-03-06T00:27:23.144Z,97458.09
2023-03-06T00:32:25.259Z,97461.63
2023-03-06T00:37:27.230Z,97472.03
2023-03-06T00:42:29.190Z,97472.03
2023-03-06T00:47:31.134Z,97469.56
2023-03-06T00:52:33.334Z,97471.31
2023-03-06T00:57:35.283Z,97475.75
2023-03-06T01:02:37.196Z,97458.50
2023-03-06T01:07:39.081Z,97466.28
2023-03-06T01:12:41.024Z,97468.69
2023-03-06T01:17:42.997Z,97472.09
2023-03-06T01:22:44.961Z,97469.50
2023-03-06T01:27:46.931Z,97463.53
2023-03-06T01:32:48.920Z,97470.31
2023-03-06T01:37:50.865Z,97466.03
2023-03-06T01:42:53.046Z,97468.81
2023-03-06T01:47:54.948Z,97470.63
2023-03-06T01:52:58.286Z,97469.03
2023-03-06T01:58:02.207Z,97474.38
2023-03-06T02:03:12.612Z,97474.22
2023-03-06T02:08:16.846Z,97481.91
2023-03-06T02:13:18.749Z,97479.31
2023-03-06T02:18:20.806Z,97489.63
2023-03-06T02:23:47.203Z,97484.41
2023-03-06T02:28:49.103Z,97492.13
2023-03-06T02:34:07.283Z,97491.25
2023-03-06T02:39:09.131Z,97490.41
2023-03-06T02:44:10.977Z,97486.06
2023-03-06T02:49:12.983Z,97485.19
2023-03-06T02:54:14.913Z,97481.13
2023-03-06T02:59:16.824Z,97481.97
2023-03-06T03:04:18.755Z,97488.03
2023-03-06T03:09:20.685Z,97488.91
2023-03-06T03:14:24.621Z,97480.41
2023-03-06T03:19:26.596Z,97476.97
2023-03-06T03:24:28.507Z,97479.56
2023-03-06T03:29:30.548Z,97481.28
2023-03-06T03:34:32.398Z,97486.56
2023-03-06T03:39:34.335Z,97483.97
2023-03-06T03:44:36.174Z,97496.88
2023-03-06T03:49:38.181Z,97491.63
2023-03-06T03:54:40.071Z,97495.03
2023-03-06T03:59:42.019Z,97494.25
2023-03-06T04:04:43.921Z,97492.50
2023-03-06T04:09:45.889Z,97497.69
2023-03-06T04:14:47.840Z,97495.03
2023-03-06T04:19:49.853Z,97499.25
2023-03-06T04:24:51.815Z,97492.50
2023-03-06T04:29:53.718Z,97501.19
2023-03-06T04:34:55.764Z,97499.38
2023-03-06T04:39:57.684Z,97493.28
2023-03-06T04:44:59.558Z,97495.03
2023-03-06T04:50:01.547Z,97507.88
2023-03-06T04:55:05.210Z,97493.22
2023-03-06T05:00:09.083Z,97498.25
2023-03-06T05:05:11.575Z,97507.75
2023-03-06T05:10:15.158Z,97503.38
2023-03-06T05:15:17.250Z,97507.44
2023-03-06T05:20:19.149Z,97513.50
2023-03-06T05:25:20.994Z,97509.97
2023-03-06T05:30:23.145Z,97509.31
2023-03-06T05:35:25.046Z,97514.41
2023-03-06T05:40:26.936Z,97515.13
2023-03-06T05:45:28.821Z,97508.28
2023-03-06T05:50:30.898Z,97520.47
2023-03-06T05:55:32.825Z,97524.50
2023-03-06T06:00:34.700Z,97522.81
2023-03-06T06:05:39.693Z,97525.91
2023-03-06T06:10:41.632Z,97531.41
2023-03-06T06:15:43.431Z,97529.16
2023-03-06T06:20:45.352Z,97534.31
2023-03-06T06:25:47.217Z,97525.88
2023-03-06T06:30:49.178Z,97522.31
2023-03-06T06:35:51.406Z,97532.94
2023-03-06T06:41:26.807Z,97525.09
2023-03-06T06:46:53.314Z,97523.13
2023-03-06T06:51:40.473Z,97529.69
2023-03-06T06:56:42.472Z,97534.28
2023-03-06T07:01:44.605Z,97534.94
2023-03-06T07:06:46.718Z,97548.69
2023-03-06T07:11:48.670Z,97535.75
2023-03-06T07:16:50.629Z,97531.59
2023-03-06T07:21:52.509Z,97542.09
2023-03-06T07:26:54.416Z,97539.56
2023-03-06T07:31:56.413Z,97546.50
2023-03-06T07:36:58.292Z,97553.47
2023-03-06T07:42:00.210Z,97554.34
2023-03-06T07:47:02.144Z,97554.03
2023-03-06T07:52:04.161Z,97555.88
2023-03-06T07:57:06.235Z,97561.88
2023-03-06T08:02:09.797Z,97569.28
2023-03-06T08:07:11.682Z,97564.19
2023-03-06T08:12:15.709Z,97570.72
2023-03-06T08:17:18.247Z,97570.03
2023-03-06T08:22:20.197Z,97565.78
2023-03-06T08:27:22.044Z,97577.09
2023-03-06T08:32:23.952Z,97573.50
2023-03-06T08:37:25.946Z,97565.13
2023-03-06T08:42:27.907Z,97582.00
2023-03-06T08:47:29.828Z,97582.69
2023-03-06T08:52:31.746Z,97576.88
2023-03-06T08:57:33.654Z,97587.63
2023-03-06T09:02:35.612Z,97580.47
2023-03-06T09:07:37.486Z,97580.13
2023-03-06T09:12:49.418Z,97580.28
2023-03-06T09:17:53.279Z,97580.66
2023-03-06T09:22:55.230Z,97575.63
2023-03-06T09:28:10.576Z,97585.75
2023-03-06T09:33:13.454Z,97595.41
2023-03-06T09:38:15.489Z,97591.28
2023-03-06T09:43:21.159Z,97590.28
2023-03-06T09:48:26.421Z,97596.38
2023-03-06T09:53:31.315Z,97608.06
2023-03-06T09:58:35.396Z,97605.47
2023-03-06T10:03:48.074Z,97597.06
2023-03-06T10:09:41.062Z,97591.16
2023-03-06T10:14:49.087Z,97595.91
2023-03-06T10:19:51.135Z,97591.88
2023-03-06T10:24:58.885Z,97598.22
2023-03-06T10:30:48.177Z,97588.19
2023-03-06T10:35:51.497Z,97589.28
2023-03-06T10:41:11.173Z,97587.25
2023-03-06T10:46:13.918Z,97588.91
2023-03-06T10:51:18.921Z,97586.38
2023-03-06T10:56:53.355Z,97594.31
2023-03-06T11:01:56.322Z,97598.34
2023-03-06T11:07:24.626Z,97590.72
2023-03-06T11:12:39.190Z,97594.31
2023-03-06T11:18:00.659Z,97590.13
2023-03-06T11:23:32.669Z,97597.34
2023-03-06T11:28:40.925Z,97596.16
2023-03-06T11:33:44.599Z,97600.09
2023-03-06T11:38:54.508Z,97604.94
2023-03-06T11:44:19.330Z,97606.66
2023-03-06T11:49:33.122Z,97611.09
2023-03-06T11:54:34.976Z,97618.00
2023-03-06T11:59:56.657Z,97625.47
2023-03-06T12:05:22.032Z,97622.66
2023-03-06T12:10:49.061Z,97614.41
2023-03-06T12:16:05.742Z,97636.25
2023-03-06T12:21:11.674Z,97632.47
2023-03-06T12:26:38.565Z,97634.72
2023-03-06T12:31:57.878Z,97627.13
2023-03-06T12:37:31.066Z,97638.13
2023-03-06T12:42:47.268Z,97633.50
2023-03-06T12:47:49.387Z,97644.78
2023-03-06T12:52:52.681Z,97646.94
2023-03-06T12:57:54.578Z,97654.19
2023-03-06T13:03:32.249Z,97645.41
2023-03-06T13:08:58.084Z,97643.13
2023-03-06T13:14:00.031Z,97658.75
2023-03-06T13:19:11.576Z,97657.50
2023-03-06T13:24:43.801Z,97661.97
2023-03-06T13:29:50.609Z,97668.91
2023-03-06T13:34:52.431Z,97670.81
2023-03-06T13:39:57.239Z,97675.72
2023-03-06T13:45:19.469Z,97673.47
2023-03-06T13:50:36.435Z,97678.47
2023-03-06T13:56:01.439Z,97685.72
2023-03-06T14:01:24.052Z,97692.72
2023-03-06T14:06:35.064Z,97690.31
2023-03-06T14:11:37.122Z,97685.66
2023-03-06T14:16:49.380Z,97698.53
2023-03-06T14:21:56.237Z,97701.00
2023-03-06T14:26:58.412Z,97719.66
2023-03-06T14:32:00.737Z,97711.97
2023-03-06T14:37:03.778Z,97718.22
2023-03-06T14:42:20.000Z,97727.13
2023-03-06T14:47:32.272Z,97734.19
2023-03-06T14:52:34.210Z,97736.84
2023-03-06T14:57:36.051Z,97743.03
2023-03-06T15:02:38.143Z,97740.44
2023-03-06T15:07:40.035Z,97740.53
2023-03-06T15:12:42.011Z,97754.53
2023-03-06T15:17:45.400Z,97753.59
2023-03-06T15:22:49.895Z,97771.69
2023-03-06T15:27:53.736Z,97786.59
2023-03-06T15:33:17.317Z,97805.81
2023-03-06T15:38:45.729Z,97800.69
2023-03-06T15:43:47.677Z,97811.91
2023-03-06T15:48:57.198Z,97807.69
2023-03-06T15:54:11.380Z,97820.63
2023-03-06T15:59:23.648Z,97817.28
2023-03-06T16:04:25.603Z,97825.97
2023-03-06T16:09:27.509Z,97833.75
2023-03-06T16:14:30.221Z,97840.69
2023-03-06T16:19:31.859Z,97849.34
2023-03-06T16:24:33.864Z,97859.66
2023-03-06T16:29:37.222Z,97864.88
2023-03-06T16:34:39.119Z,97863.97
2023-03-06T16:39:41.117Z,97870.84
2023-03-06T16:44:43.525Z,97862.28
2023-03-06T16:49:45.432Z,97872.63
2023-03-06T16:54:47.356Z,97872.63
2023-03-06T16:59:49.336Z,97880.34
2023-03-06T17:04:51.206Z,97878.63
2023-03-06T17:09:53.080Z,97892.41
2023-03-06T17:14:55.852Z,97900.16
2023-03-06T17:19:58.054Z,97904.47
2023-03-06T17:25:03.780Z,97904.50
2023-03-06T17:30:08.241Z,97913.06
2023-03-06T17:35:10.159Z,97915.59
2023-03-06T17:40:12.548Z,97924.25
2023-03-06T17:45:15.173Z,97923.41
2023-03-06T17:50:17.266Z,97930.31
2023-03-06T17:55:19.191Z,97938.03
2023-03-06T18:00:21.557Z,97947.47
2023-03-06T18:05:23.449Z,97934.56
2023-03-06T18:10:25.471Z,97944.03
2023-03-06T18:15:27.529Z,97948.38
2023-03-06T18:20:29.636Z,97958.69
2023-03-06T18:25:32.102Z,97950.13
2023-03-06T18:30:37.903Z,97959.59
2023-03-06T18:35:40.182Z,97953.59
2023-03-06T18:40:42.343Z,97959.63
2023-03-06T18:45:53.263Z,97966.47
2023-03-06T18:50:55.230Z,97957.88
2023-03-06T18:55:57.411Z,97957.88
2023-03-06T19:00:59.803Z,97967.28
2023-03-06T19:06:10.330Z,97974.16
2023-03-06T19:11:16.391Z,97977.59
2023-03-06T19:16:19.949Z,97973.31
2023-03-06T19:21:22.810Z,97973.34
2023-03-06T19:26:24.784Z,97980.19
2023-03-06T19:31:27.673Z,97983.59
2023-03-06T19:36:31.237Z,97982.72
2023-03-06T19:41:34.430Z,97988.75
2023-03-06T19:46:36.568Z,97987.06
2023-03-06T19:51:38.560Z,98003.38
2023-03-06T19:56:40.607Z,97997.38
2023-03-06T20:01:42.664Z,97994.81
2023-03-06T20:06:44.815Z,98006.84
2023-03-06T20:11:46.825Z,98004.28
2023-03-06T20:16:48.819Z,97999.13
2023-03-06T20:21:50.811Z,98004.25
2023-03-06T20:26:52.870Z,97992.25
2023-03-06T20:31:55.736Z,98001.69
2023-03-06T20:36:57.706Z,97998.22
2023-03-06T20:41:59.656Z,98005.13
2023-03-06T20:47:01.578Z,98003.38
2023-03-06T20:52:03.593Z,98006.81
2023-03-06T20:57:05.622Z,97999.94
2023-03-06T21:02:09.628Z,98000.78
2023-03-06T21:07:11.615Z,98000.78
2023-03-06T21:12:13.506Z,98000.78
2023-03-06T21:17:15.420Z,97995.63
2023-03-06T21:22:17.483Z,98007.66
2023-03-06T21:27:19.494Z,97999.06
2023-03-06T21:32:21.424Z,98008.53
2023-03-06T21:37:23.390Z,98013.66
2023-03-06T21:42:25.415Z,97998.22
2023-03-06T21:47:27.410Z,98012.81
2023-03-06T21:52:29.861Z,98012.81
2023-03-06T21:57:31.720Z,98010.25
2023-03-06T22:02:33.645Z,98014.53
2023-03-06T22:07:38.751Z,98015.38
2023-03-06T22:12:43.546Z,98017.09
2023-03-06T22:17:45.401Z,98009.34
2023-03-06T22:22:47.325Z,98006.81
2023-03-06T22:27:49.240Z,98007.66
2023-03-06T22:32:52.942Z,98004.25
2023-03-06T22:37:54.894Z,98004.22
2023-03-06T22:42:56.895Z,98001.66
2023-03-06T22:48:10.065Z,98007.66
2023-03-06T22:53:12.906Z,98005.91
2023-03-06T22:58:15.082Z,98003.34
2023-03-06T23:03:17.018Z,97998.22
2023-03-06T23:08:18.959Z,98004.22
2023-03-06T23:13:20.933Z,98002.53
2023-03-06T23:18:22.899Z,98000.81
2023-03-06T23:23:25.461Z,97999.09
2023-03-06T23:28:27.510Z,98001.69
2023-03-06T23:33:29.467Z,97990.50
2023-03-06T23:38:31.444Z,98001.69
2023-03-06T23:43:33.649Z,97999.09
2023-03-06T23:48:36.189Z,97992.25
2023-03-06T23:53:37.899Z,97999.09
2023-03-06T23:58:40.129Z,97992.22
